To NAV CANADA Home Page Login to a new session Search on AWWS site Feedback and Comments Disclaimer Vers la page française équivalente Tips FAQ What's new on the site To the Forecasts and Observations / NOTAM section To "File a Flight Plan" website Publications and other links Update of the User's profile FIC Telephone Numbers My Weather Data Folder Route Weather Data Regional Weather Data Local Weather Data To the Forecasts and Observations / NOTAM section
Request Generated 03/23/2017 at 00:11:56 UTC . Weather information available at that time is displayed.

METAR/TAF

MONT-JOLI/QC    

METAR CYYY 230000Z 33025KT 15SM DRSN FEW120 FEW220 M11/M18 A3009 RMK
AC2CI1 CI TR SLP196=
METAR CYYY 222300Z 33024G29KT 30SM R06/5500VP6000FT/N DRSN FEW050
SCT120 SCT220 M11/M18 A3006 RMK SC1AC2CI1 SLP185=
METAR CYYY 222200Z 32021G26KT 30SM DRSN FEW050 SCT150 SCT220 M10/M18
A3003 RMK SC2AC1CI1 SLP175=

TAF CYYY 221938Z 2220/2308 33015G25KT P6SM BKN030 TEMPO 2220/2224 4SM
BLSN
FM230000 33020G30KT P6SM BKN030 TEMPO 2300/2308 3SM -SHSN BLSN
BKN020
RMK NXT FCST BY 230200Z=
Your time UTC time
Weather data provided by Environment Canada and NAV CANADA